Time;durP1;ratioP1;P1;durP2;ratioP2;P2;SDS_P1;SDS_P2;PMS_P1;PMS_P2;Temp;Humidity;BMP_temperature;BMP_pressure;BME280_temperature;BME280_humidity;BME280_pressure;Samples;Min_cycle;Max_cycle;Signal;HPM_P1;HPM_P2
2023/01/02 00:01:04;;;;;;;29.13;20.88;;;10.80;99.90;;;;;;4906009;29;20051;-73
2023/01/02 00:03:30;;;;;;;31.95;22.63;;;10.70;99.90;;;;;;4916128;29;20130;-74
2023/01/02 00:05:55;;;;;;;31.95;22.27;;;10.70;99.90;;;;;;4898931;29;20203;-74
2023/01/02 00:08:21;;;;;;;31.45;22.35;;;10.70;99.90;;;;;;4902860;29;20052;-74
2023/01/02 00:10:47;;;;;;;30.95;20.85;;;10.80;99.90;;;;;;4916335;29;20265;-73
2023/01/02 00:13:13;;;;;;;28.85;20.48;;;10.80;99.90;;;;;;4934611;29;20047;-74
2023/01/02 00:15:39;;;;;;;30.40;19.58;;;10.80;99.90;;;;;;4919374;29;20415;-73
2023/01/02 00:18:05;;;;;;;27.35;19.77;;;10.80;99.90;;;;;;4919192;29;20058;-74
2023/01/02 00:20:30;;;;;;;27.67;20.38;;;10.80;99.90;;;;;;4922190;29;20051;-73
2023/01/02 00:22:56;;;;;;;30.50;20.15;;;10.80;99.90;;;;;;4899492;29;20048;-74
2023/01/02 00:25:22;;;;;;;28.02;19.10;;;10.80;99.90;;;;;;4900440;29;20051;-75
2023/01/02 00:27:48;;;;;;;24.08;15.38;;;10.80;99.90;;;;;;4909037;29;20115;-74
2023/01/02 00:30:13;;;;;;;29.58;18.58;;;11.00;99.90;;;;;;4918266;29;20051;-74
2023/01/02 00:32:39;;;;;;;31.08;21.85;;;11.00;99.90;;;;;;4918537;29;20122;-74
2023/01/02 00:35:05;;;;;;;31.00;21.35;;;10.90;99.90;;;;;;4919311;29;20135;-73
2023/01/02 00:37:31;;;;;;;35.80;23.00;;;10.90;99.90;;;;;;4917833;29;20500;-74
2023/01/02 00:39:56;;;;;;;32.10;21.42;;;10.80;99.90;;;;;;4918687;29;20060;-74
2023/01/02 00:42:22;;;;;;;31.90;21.48;;;10.90;99.90;;;;;;4935635;29;20511;-74
2023/01/02 00:44:48;;;;;;;26.42;20.33;;;11.00;99.90;;;;;;4918966;29;20094;-73
2023/01/02 00:47:14;;;;;;;32.78;22.15;;;10.90;99.90;;;;;;4902503;29;20421;-74
2023/01/02 00:49:39;;;;;;;33.40;21.65;;;10.90;99.90;;;;;;4919004;29;20150;-74
2023/01/02 00:52:05;;;;;;;33.17;22.83;;;10.90;99.90;;;;;;4914617;29;20063;-73
2023/01/02 00:54:31;;;;;;;30.05;21.17;;;10.90;99.90;;;;;;4914167;29;20048;-72
2023/01/02 00:56:56;;;;;;;33.25;23.23;;;10.90;99.90;;;;;;4927814;29;20516;-73
2023/01/02 00:59:22;;;;;;;35.15;22.73;;;10.90;99.90;;;;;;4918686;29;20055;-75
2023/01/02 01:01:48;;;;;;;36.40;24.30;;;10.90;99.90;;;;;;4915574;29;20112;-74
2023/01/02 01:04:14;;;;;;;37.45;23.77;;;10.90;99.90;;;;;;4930696;29;20141;-73
2023/01/02 01:06:39;;;;;;;33.22;23.20;;;10.90;99.90;;;;;;4918947;29;20488;-74
2023/01/02 01:09:05;;;;;;;35.13;24.15;;;11.00;99.90;;;;;;4898990;29;20043;-74
2023/01/02 01:11:31;;;;;;;34.28;24.67;;;10.90;99.90;;;;;;4899711;29;20115;-74
2023/01/02 01:13:56;;;;;;;34.58;24.02;;;11.00;99.90;;;;;;4908700;29;20522;-73
2023/01/02 01:16:22;;;;;;;31.58;22.10;;;11.00;99.90;;;;;;4903410;29;20054;-74
2023/01/02 01:18:48;;;;;;;38.03;24.08;;;11.00;99.90;;;;;;4916316;29;20408;-74
2023/01/02 01:21:19;;;;;;;29.98;20.55;;;11.00;99.90;;;;;;4916193;29;20080;-73
2023/01/02 01:23:52;;;;;;;30.40;22.13;;;11.00;99.90;;;;;;4901956;29;20059;-74
2023/01/02 01:26:19;;;;;;;31.13;21.08;;;11.10;99.90;;;;;;4931251;29;20055;-74
2023/01/02 01:28:45;;;;;;;30.20;20.45;;;11.10;99.90;;;;;;4918316;29;20477;-74
2023/01/02 01:31:12;;;;;;;29.80;20.63;;;11.10;99.90;;;;;;4903042;29;20102;-74
2023/01/02 01:33:40;;;;;;;32.30;21.23;;;11.20;99.90;;;;;;4917928;29;20058;-74
2023/01/02 01:36:15;;;;;;;34.67;22.60;;;11.20;99.90;;;;;;4935387;29;20059;-74
2023/01/02 01:38:41;;;;;;;30.58;21.45;;;11.20;99.90;;;;;;4901349;29;20063;-75
2023/01/02 01:41:09;;;;;;;30.30;19.42;;;11.10;99.90;;;;;;4919815;29;20051;-75
2023/01/02 01:43:39;;;;;;;31.13;19.88;;;11.20;99.90;;;;;;4917344;29;20123;-74
2023/01/02 01:46:25;;;;;;;37.92;22.23;;;11.20;99.90;;;;;;4921952;29;20047;-75
2023/01/02 01:49:09;;;;;;;26.63;17.58;;;11.20;99.90;;;;;;4920846;29;20051;-76
2023/01/02 01:51:40;;;;;;;28.85;18.00;;;11.20;99.90;;;;;;4921767;29;20055;-75
2023/01/02 01:54:09;;;;;;;28.85;18.17;;;11.20;99.90;;;;;;4920457;29;20051;-75
2023/01/02 01:56:39;;;;;;;28.23;18.17;;;11.20;99.90;;;;;;4921785;29;20132;-74
2023/01/02 01:59:08;;;;;;;28.73;17.17;;;11.20;99.90;;;;;;4921141;29;20055;-75
2023/01/02 02:01:33;;;;;;;27.13;17.27;;;11.20;99.90;;;;;;4905979;29;20065;-75
2023/01/02 02:03:59;;;;;;;27.20;15.80;;;11.20;99.90;;;;;;4918329;29;20131;-75
2023/01/02 02:06:25;;;;;;;22.83;15.60;;;11.20;99.90;;;;;;4904884;29;20047;-75
2023/01/02 02:08:58;;;;;;;23.38;15.40;;;11.20;99.90;;;;;;4909963;29;20055;-73
2023/01/02 02:11:24;;;;;;;26.58;16.75;;;11.30;99.90;;;;;;4919270;29;20119;-75
2023/01/02 02:13:50;;;;;;;25.05;15.88;;;11.30;99.90;;;;;;4930704;29;20051;-75
2023/01/02 02:16:16;;;;;;;23.67;14.57;;;11.30;99.90;;;;;;4911551;29;20048;-75
2023/01/02 02:18:44;;;;;;;26.23;15.88;;;11.30;99.90;;;;;;4921035;29;20559;-75
2023/01/02 02:21:29;;;;;;;25.15;15.52;;;11.30;99.90;;;;;;4920487;29;20480;-75
2023/01/02 02:24:22;;;;;;;23.35;14.15;;;11.30;99.90;;;;;;4928719;29;20135;-74
2023/01/02 02:26:56;;;;;;;22.35;13.57;;;11.30;99.90;;;;;;4932894;29;20054;-74
2023/01/02 02:30:06;;;;;;;19.52;13.40;;;11.30;99.90;;;;;;4933964;29;20136;-75
2023/01/02 02:32:50;;;;;;;22.10;12.00;;;11.30;99.90;;;;;;4910928;29;20183;-74
2023/01/02 02:35:32;;;;;;;19.98;12.50;;;11.40;99.90;;;;;;4919821;29;20547;-75
2023/01/02 02:38:03;;;;;;;19.33;11.90;;;11.40;99.90;;;;;;4920192;29;20051;-75
2023/01/02 02:40:47;;;;;;;20.55;12.27;;;11.40;99.90;;;;;;4921008;29;20127;-75
2023/01/02 02:43:34;;;;;;;20.65;11.60;;;11.40;99.90;;;;;;4934127;29;20040;-74
2023/01/02 02:46:09;;;;;;;21.30;11.82;;;11.40;99.90;;;;;;4926489;29;20123;-74
2023/01/02 02:48:53;;;;;;;19.45;11.80;;;11.50;99.90;;;;;;4915571;29;20140;-75
2023/01/02 02:51:35;;;;;;;22.30;12.30;;;11.50;99.90;;;;;;4928017;29;20050;-74
2023/01/02 02:54:40;;;;;;;19.40;11.52;;;11.40;99.90;;;;;;4915876;29;20400;-74
2023/01/02 02:57:08;;;;;;;20.92;12.02;;;11.40;99.90;;;;;;4920365;29;20047;-74
2023/01/02 02:59:35;;;;;;;21.67;11.43;;;11.40;99.90;;;;;;4920374;29;20055;-74
2023/01/02 03:02:02;;;;;;;18.17;10.52;;;11.40;99.90;;;;;;4903034;29;20115;-72
2023/01/02 03:04:28;;;;;;;23.15;11.82;;;11.50;99.90;;;;;;4911756;29;20134;-74
2023/01/02 03:06:57;;;;;;;18.23;11.25;;;11.50;99.90;;;;;;4918862;29;20139;-73
2023/01/02 03:09:38;;;;;;;20.30;11.23;;;11.50;99.90;;;;;;4911975;29;20481;-73
2023/01/02 03:12:22;;;;;;;19.57;11.00;;;11.50;99.90;;;;;;4916699;29;20075;-74
2023/01/02 03:14:48;;;;;;;20.83;11.93;;;11.50;99.90;;;;;;4920043;29;20305;-74
2023/01/02 03:17:26;;;;;;;17.88;11.80;;;11.50;99.90;;;;;;4920238;29;20043;-74
2023/01/02 03:19:58;;;;;;;21.65;11.35;;;11.50;99.90;;;;;;4917436;29;20043;-74
2023/01/02 03:22:30;;;;;;;20.48;11.48;;;11.50;99.90;;;;;;4934119;29;20055;-74
2023/01/02 03:24:57;;;;;;;20.42;11.70;;;11.50;99.90;;;;;;4904386;29;20047;-75
2023/01/02 03:27:26;;;;;;;22.33;12.50;;;11.50;99.90;;;;;;4920171;29;20401;-74
2023/01/02 03:30:16;;;;;;;22.48;11.90;;;11.50;99.90;;;;;;4919693;29;20052;-74
2023/01/02 03:32:50;;;;;;;23.17;12.00;;;11.50;99.90;;;;;;4903824;29;20134;-74
2023/01/02 03:35:21;;;;;;;21.25;11.80;;;11.50;99.90;;;;;;4920107;29;20090;-74
2023/01/02 03:37:51;;;;;;;19.17;11.75;;;11.50;99.90;;;;;;4919128;29;20381;-75
2023/01/02 03:40:40;;;;;;;19.38;11.77;;;11.50;99.90;;;;;;4916248;29;20052;-75
2023/01/02 03:43:12;;;;;;;19.27;11.48;;;11.40;99.90;;;;;;4930467;29;20048;-74
2023/01/02 03:45:45;;;;;;;19.17;11.43;;;11.40;99.90;;;;;;4909363;29;20056;-74
2023/01/02 03:48:36;;;;;;;19.77;11.45;;;11.50;99.90;;;;;;4918618;29;20127;-75
2023/01/02 03:51:03;;;;;;;23.80;12.15;;;11.50;99.90;;;;;;4936272;29;20055;-74
2023/01/02 03:53:30;;;;;;;20.23;11.98;;;11.50;99.90;;;;;;4902856;29;20481;-74
2023/01/02 03:56:02;;;;;;;19.73;11.88;;;11.50;99.90;;;;;;4935823;29;20067;-74
2023/01/02 03:59:03;;;;;;;18.27;11.95;;;11.50;99.90;;;;;;4916276;29;20055;-74
2023/01/02 04:01:48;;;;;;;20.92;11.77;;;11.50;99.90;;;;;;4895652;29;20063;-75
2023/01/02 04:04:49;;;;;;;22.95;12.65;;;11.50;99.90;;;;;;4914739;29;20079;-74
2023/01/02 04:07:58;;;;;;;22.30;12.05;;;11.50;99.90;;;;;;4923048;29;20047;-74
2023/01/02 04:10:26;;;;;;;21.67;12.23;;;11.50;99.90;;;;;;4898537;29;20052;-76
2023/01/02 04:12:54;;;;;;;19.35;11.18;;;11.50;99.90;;;;;;4882757;29;20059;-75
2023/01/02 04:15:25;;;;;;;20.48;11.30;;;11.50;99.90;;;;;;4880003;29;20055;-74
2023/01/02 04:17:59;;;;;;;25.42;12.10;;;11.60;99.90;;;;;;4903455;29;20048;-75
2023/01/02 04:20:35;;;;;;;24.48;11.95;;;11.60;99.90;;;;;;4918769;29;20058;-75
2023/01/02 04:23:08;;;;;;;22.48;12.30;;;11.60;99.90;;;;;;4918174;29;20059;-75
2023/01/02 04:25:46;;;;;;;22.27;11.70;;;11.60;99.90;;;;;;4918617;29;20066;-75
2023/01/02 04:28:23;;;;;;;20.40;11.07;;;11.70;99.90;;;;;;4918962;29;20052;-76
2023/01/02 04:31:27;;;;;;;21.48;12.70;;;11.70;99.90;;;;;;4918790;29;20059;-75
2023/01/02 04:33:58;;;;;;;25.63;15.55;;;11.70;99.90;;;;;;4898458;29;20044;-75
2023/01/02 04:36:24;;;;;;;28.60;18.42;;;11.70;99.90;;;;;;4915441;29;20487;-75
2023/01/02 04:38:50;;;;;;;30.58;20.73;;;11.70;99.90;;;;;;4917467;29;20082;-76
2023/01/02 04:41:28;;;;;;;33.65;23.63;;;11.70;99.90;;;;;;4888111;29;20079;-76
2023/01/02 04:43:57;;;;;;;34.45;23.48;;;11.70;99.90;;;;;;4909862;29;20485;-75
2023/01/02 04:46:25;;;;;;;33.22;21.75;;;11.70;99.90;;;;;;4914753;29;20123;-75
2023/01/02 04:48:52;;;;;;;31.88;20.45;;;11.70;99.90;;;;;;4909739;29;20138;-75
2023/01/02 04:51:17;;;;;;;27.15;18.42;;;11.70;99.90;;;;;;4918233;29;20142;-75
2023/01/02 04:53:47;;;;;;;26.55;16.60;;;11.70;99.90;;;;;;4914354;29;20461;-75
2023/01/02 04:56:12;;;;;;;23.67;13.77;;;11.80;99.90;;;;;;4915377;29;20055;-75
2023/01/02 04:58:38;;;;;;;23.27;13.73;;;11.80;99.90;;;;;;4911966;29;20055;-74
2023/01/02 05:01:16;;;;;;;19.27;11.95;;;11.80;99.90;;;;;;4912453;29;20051;-75
2023/01/02 05:03:45;;;;;;;18.05;11.65;;;11.80;99.90;;;;;;4915699;29;20192;-75
2023/01/02 05:06:10;;;;;;;17.40;10.23;;;11.80;99.90;;;;;;4908409;29;20397;-74
2023/01/02 05:08:37;;;;;;;17.77;9.50;;;11.80;99.90;;;;;;4932400;29;20058;-75
2023/01/02 05:11:11;;;;;;;20.10;10.48;;;11.90;99.90;;;;;;4919055;29;20048;-74
2023/01/02 05:13:37;;;;;;;15.65;8.55;;;11.90;99.90;;;;;;4917853;29;20599;-75
2023/01/02 05:16:03;;;;;;;17.77;9.77;;;12.00;99.90;;;;;;4920027;29;20130;-74
2023/01/02 05:18:30;;;;;;;18.13;9.95;;;12.00;99.90;;;;;;4920709;29;20067;-75
2023/01/02 05:21:04;;;;;;;17.50;9.45;;;12.00;99.90;;;;;;4922171;29;20051;-74
2023/01/02 05:23:48;;;;;;;18.55;10.02;;;12.00;99.90;;;;;;4915275;29;20059;-76
2023/01/02 05:26:15;;;;;;;19.05;10.15;;;12.00;99.90;;;;;;4917617;29;20058;-73
2023/01/02 05:28:41;;;;;;;16.52;9.38;;;11.90;99.90;;;;;;4903020;29;20052;-75
2023/01/02 05:31:07;;;;;;;17.08;9.40;;;11.90;99.90;;;;;;4921676;29;20481;-74
2023/01/02 05:33:33;;;;;;;17.73;9.73;;;11.90;99.90;;;;;;4904112;29;20191;-75
2023/01/02 05:35:59;;;;;;;16.80;9.60;;;12.00;99.90;;;;;;4905652;29;20123;-74
2023/01/02 05:38:24;;;;;;;15.85;9.73;;;11.90;99.90;;;;;;4907509;29;20056;-75
2023/01/02 05:40:59;;;;;;;17.17;9.93;;;12.00;99.90;;;;;;4913043;29;20063;-75
2023/01/02 05:43:25;;;;;;;18.42;10.73;;;12.00;99.90;;;;;;4920555;29;20111;-75
2023/01/02 05:45:50;;;;;;;18.02;10.35;;;12.00;99.90;;;;;;4905307;29;20055;-75
2023/01/02 05:48:16;;;;;;;19.83;10.43;;;11.90;99.90;;;;;;4905746;29;20515;-76
2023/01/02 05:50:42;;;;;;;19.30;10.50;;;12.00;99.90;;;;;;4921948;29;20054;-75
2023/01/02 05:53:07;;;;;;;21.67;10.35;;;12.00;99.90;;;;;;4904624;29;20563;-75
2023/01/02 05:55:33;;;;;;;21.40;11.25;;;12.00;99.90;;;;;;4938798;29;20152;-74
2023/01/02 05:58:01;;;;;;;18.65;10.70;;;12.00;99.90;;;;;;4921108;29;20059;-75
2023/01/02 06:00:26;;;;;;;19.85;10.85;;;12.00;99.90;;;;;;4921964;29;20051;-75
2023/01/02 06:02:52;;;;;;;18.73;10.85;;;12.00;99.90;;;;;;4938348;29;20039;-75
2023/01/02 06:05:18;;;;;;;18.17;9.98;;;12.00;99.90;;;;;;4916320;29;20067;-75
2023/01/02 06:07:44;;;;;;;16.60;10.20;;;12.00;99.90;;;;;;4888043;29;20404;-74
2023/01/02 06:10:09;;;;;;;15.13;9.27;;;12.00;99.90;;;;;;4924206;29;20078;-75
2023/01/02 06:12:35;;;;;;;17.95;9.77;;;12.00;99.90;;;;;;4922175;29;20064;-76
2023/01/02 06:15:01;;;;;;;18.08;10.18;;;12.00;99.90;;;;;;4922245;29;20203;-76
2023/01/02 06:17:26;;;;;;;15.95;9.10;;;12.00;99.90;;;;;;4917813;29;20530;-73
2023/01/02 06:19:52;;;;;;;15.35;9.32;;;12.00;99.90;;;;;;4922148;29;20055;-78
2023/01/02 06:22:18;;;;;;;18.90;9.85;;;12.00;99.90;;;;;;4913900;29;20523;-75
2023/01/02 06:24:43;;;;;;;20.00;10.07;;;12.00;99.90;;;;;;4919691;29;20044;-76
2023/01/02 06:27:09;;;;;;;14.68;9.02;;;12.00;99.90;;;;;;4920874;29;20045;-76
2023/01/02 06:29:35;;;;;;;15.60;9.57;;;12.00;99.90;;;;;;4920366;29;20528;-77
2023/01/02 06:32:00;;;;;;;17.08;9.10;;;12.00;99.90;;;;;;4913614;29;20052;-77
2023/01/02 06:34:26;;;;;;;14.80;8.27;;;12.00;99.90;;;;;;4930650;29;20050;-77
2023/01/02 06:36:52;;;;;;;17.27;8.88;;;12.00;99.90;;;;;;4917159;29;20096;-76
2023/01/02 06:39:17;;;;;;;14.40;8.13;;;12.10;99.90;;;;;;4907816;29;20515;-77
2023/01/02 06:41:43;;;;;;;17.20;9.35;;;12.10;99.90;;;;;;4916830;29;20060;-75
2023/01/02 06:44:12;;;;;;;15.77;8.23;;;12.10;99.90;;;;;;4903698;29;20119;-73
2023/01/02 06:46:38;;;;;;;13.05;8.00;;;12.10;99.90;;;;;;4912852;29;20134;-75
2023/01/02 06:49:03;;;;;;;15.73;8.77;;;12.10;99.90;;;;;;4908255;29;20137;-75
2023/01/02 06:51:29;;;;;;;15.00;9.02;;;12.10;99.90;;;;;;4913839;29;20067;-75
2023/01/02 06:53:55;;;;;;;17.58;9.52;;;12.10;99.90;;;;;;4911031;29;20078;-75
2023/01/02 06:56:21;;;;;;;13.52;8.55;;;12.10;99.90;;;;;;4922419;29;20055;-75
2023/01/02 06:58:47;;;;;;;14.85;8.82;;;12.10;99.90;;;;;;4928327;29;20048;-76
2023/01/02 07:01:15;;;;;;;18.20;9.43;;;12.10;99.90;;;;;;4924982;29;20468;-74
2023/01/02 07:03:41;;;;;;;16.20;9.70;;;12.10;99.90;;;;;;4909583;29;20055;-73
2023/01/02 07:06:11;;;;;;;19.63;9.45;;;12.10;99.90;;;;;;4923259;29;20126;-74
2023/01/02 07:08:37;;;;;;;15.90;9.23;;;12.00;99.90;;;;;;4921885;29;20134;-73
2023/01/02 07:11:08;;;;;;;16.58;9.27;;;12.00;99.90;;;;;;4928991;29;20087;-73
2023/01/02 07:13:34;;;;;;;15.52;8.95;;;12.10;99.90;;;;;;4922181;29;20055;-74
2023/01/02 07:16:08;;;;;;;15.55;9.63;;;12.00;99.90;;;;;;4930527;29;20449;-73
2023/01/02 07:18:34;;;;;;;15.23;9.07;;;12.00;99.90;;;;;;4918519;29;20127;-73
2023/01/02 07:21:00;;;;;;;17.23;10.07;;;12.00;99.90;;;;;;4916319;29;20079;-73
2023/01/02 07:23:26;;;;;;;15.52;9.48;;;12.00;99.90;;;;;;4919116;29;20072;-73
2023/01/02 07:25:57;;;;;;;15.50;9.15;;;12.00;99.90;;;;;;4902520;29;20261;-72
2023/01/02 07:28:24;;;;;;;14.07;8.57;;;12.00;99.90;;;;;;4916165;29;20131;-72
2023/01/02 07:30:54;;;;;;;14.90;8.75;;;12.00;99.90;;;;;;4920065;29;20503;-73
2023/01/02 07:33:20;;;;;;;11.98;7.85;;;12.00;99.90;;;;;;4918122;29;20492;-73
2023/01/02 07:35:46;;;;;;;11.30;7.93;;;12.10;99.90;;;;;;4902127;29;20086;-72
2023/01/02 07:38:11;;;;;;;7.50;5.07;;;12.10;99.90;;;;;;4918914;29;20707;-74
2023/01/02 07:40:37;;;;;;;9.68;5.80;;;12.00;99.90;;;;;;4940856;29;20393;-72
2023/01/02 07:43:03;;;;;;;9.88;5.68;;;12.00;99.90;;;;;;4922065;29;20495;-74
2023/01/02 07:45:28;;;;;;;7.47;4.45;;;11.90;99.90;;;;;;4943153;29;20407;-73
2023/01/02 07:47:54;;;;;;;8.68;5.20;;;11.90;99.90;;;;;;4924810;29;20150;-75
2023/01/02 07:50:20;;;;;;;7.20;4.40;;;11.80;99.90;;;;;;4902044;29;20135;-73
2023/01/02 07:52:45;;;;;;;5.10;3.17;;;11.80;99.90;;;;;;4920490;29;20049;-72
2023/01/02 07:55:11;;;;;;;4.30;2.42;;;11.70;99.90;;;;;;4920448;29;20050;-74
2023/01/02 07:57:37;;;;;;;4.47;2.25;;;11.60;99.90;;;;;;4920508;29;20499;-73
2023/01/02 08:00:04;;;;;;;5.22;2.42;;;11.50;99.90;;;;;;4935614;29;20128;-74
2023/01/02 08:02:29;;;;;;;4.60;2.60;;;11.40;99.90;;;;;;4926432;29;20137;-74
2023/01/02 08:04:58;;;;;;;4.47;2.50;;;11.30;99.90;;;;;;4940083;29;20103;-74
2023/01/02 08:07:24;;;;;;;4.72;2.42;;;11.30;99.90;;;;;;4914833;29;20501;-73
2023/01/02 08:09:49;;;;;;;4.88;2.80;;;11.20;99.90;;;;;;4926753;29;20055;-77
2023/01/02 08:12:15;;;;;;;5.20;3.33;;;11.10;99.90;;;;;;4923683;29;20134;-76
2023/01/02 08:14:41;;;;;;;6.25;3.90;;;11.00;99.90;;;;;;4932170;29;20435;-78
2023/01/02 08:17:06;;;;;;;6.63;4.57;;;11.00;99.90;;;;;;4909051;29;20066;-74
2023/01/02 08:19:32;;;;;;;7.00;4.80;;;10.90;99.90;;;;;;4915840;29;20066;-76
2023/01/02 08:21:58;;;;;;;7.63;5.35;;;10.80;99.90;;;;;;4924753;29;20051;-76
2023/01/02 08:24:23;;;;;;;7.90;5.95;;;10.70;99.90;;;;;;4925975;29;20113;-77
2023/01/02 08:26:49;;;;;;;7.95;6.03;;;10.60;99.90;;;;;;4928245;29;20134;-74
2023/01/02 08:29:15;;;;;;;8.70;6.38;;;10.70;99.90;;;;;;4946184;29;20059;-75
2023/01/02 08:31:41;;;;;;;8.73;6.15;;;10.60;99.90;;;;;;4926454;29;20345;-78
2023/01/02 08:34:06;;;;;;;8.52;6.32;;;10.60;99.90;;;;;;4921046;29;20055;-76
2023/01/02 08:36:32;;;;;;;8.93;6.43;;;10.50;99.90;;;;;;4930690;29;20054;-77
2023/01/02 08:38:58;;;;;;;8.57;5.88;;;10.50;99.90;;;;;;4946467;28;20063;-74
2023/01/02 08:41:36;;;;;;;8.43;5.72;;;10.50;99.90;;;;;;4931622;29;20479;-79
2023/01/02 08:44:01;;;;;;;8.90;6.32;;;10.40;99.90;;;;;;4925018;29;20542;-76
2023/01/02 08:46:29;;;;;;;8.25;5.75;;;10.40;99.90;;;;;;4928055;29;20238;-78
2023/01/02 08:48:55;;;;;;;9.20;5.40;;;10.30;99.90;;;;;;4930234;29;20047;-78
2023/01/02 08:51:21;;;;;;;6.38;3.92;;;10.30;99.90;;;;;;4930147;29;20079;-75
2023/01/02 08:53:47;;;;;;;6.15;3.65;;;10.20;99.90;;;;;;4930825;29;20051;-75
2023/01/02 08:56:20;;;;;;;6.25;3.20;;;10.10;99.90;;;;;;4933658;29;20039;-79
2023/01/02 08:58:53;;;;;;;5.45;3.10;;;10.10;99.90;;;;;;4934533;29;20548;-78
2023/01/02 09:01:19;;;;;;;5.53;2.45;;;10.00;99.90;;;;;;4928349;29;20051;-78
2023/01/02 09:03:45;;;;;;;5.47;2.60;;;10.00;99.90;;;;;;4933402;29;20083;-78
2023/01/02 09:06:11;;;;;;;5.28;2.45;;;9.90;99.90;;;;;;4947782;29;20078;-80
2023/01/02 09:08:37;;;;;;;6.30;2.70;;;9.90;99.90;;;;;;4913399;29;20405;-77
2023/01/02 09:11:14;;;;;;;5.43;2.28;;;9.90;99.90;;;;;;4929241;29;20110;-77
2023/01/02 09:13:40;;;;;;;5.13;2.30;;;9.80;99.90;;;;;;4911785;29;20047;-78
2023/01/02 09:16:07;;;;;;;4.55;1.90;;;9.70;99.90;;;;;;4932963;29;20118;-77
2023/01/02 09:18:33;;;;;;;5.30;2.05;;;9.70;99.90;;;;;;4937569;29;20036;-79
2023/01/02 09:20:59;;;;;;;6.05;2.30;;;9.60;99.90;;;;;;4922455;29;20499;-79
2023/01/02 09:23:25;;;;;;;5.13;2.13;;;9.60;99.90;;;;;;4922721;29;20047;-76
2023/01/02 09:25:50;;;;;;;5.50;1.90;;;9.60;99.90;;;;;;4921102;29;20083;-78
2023/01/02 09:28:16;;;;;;;4.72;1.77;;;9.60;99.90;;;;;;4915332;29;20051;-78
2023/01/02 09:30:42;;;;;;;4.18;1.70;;;9.50;99.90;;;;;;4920777;29;20134;-79
2023/01/02 09:33:08;;;;;;;5.13;2.08;;;9.50;99.90;;;;;;4912890;29;20477;-79
2023/01/02 09:35:34;;;;;;;6.30;2.00;;;9.50;99.90;;;;;;4916020;29;20131;-79
2023/01/02 09:38:00;;;;;;;5.10;2.08;;;9.40;99.90;;;;;;4923646;29;20130;-78
2023/01/02 09:40:27;;;;;;;4.90;2.00;;;9.40;99.90;;;;;;4901584;29;20140;-79
2023/01/02 09:42:54;;;;;;;4.97;1.92;;;9.40;99.90;;;;;;4915105;29;20508;-80
2023/01/02 09:45:21;;;;;;;5.15;2.30;;;9.40;99.90;;;;;;4934668;29;20047;-80
2023/01/02 09:47:47;;;;;;;5.70;2.30;;;9.50;99.90;;;;;;4902789;29;20043;-80
2023/01/02 09:50:20;;;;;;;6.18;2.50;;;9.50;99.90;;;;;;4914915;29;20393;-78
2023/01/02 09:52:54;;;;;;;5.20;2.50;;;9.40;99.90;;;;;;4910834;29;20098;-77
2023/01/02 09:55:58;;;;;;;5.82;2.70;;;9.40;99.90;;;;;;4912875;29;20060;-79
2023/01/02 09:58:32;;;;;;;5.63;2.25;;;9.40;99.90;;;;;;4914160;29;20040;-79
2023/01/02 10:00:58;;;;;;;4.95;2.10;;;9.40;99.90;;;;;;4913404;29;20103;-77
2023/01/02 10:03:33;;;;;;;4.85;2.33;;;9.40;99.90;;;;;;4901821;29;20080;-78
2023/01/02 10:06:11;;;;;;;5.78;2.55;;;9.40;99.90;;;;;;4920637;29;20055;-79
2023/01/02 10:08:36;;;;;;;5.15;2.50;;;9.40;99.90;;;;;;4919301;29;20119;-79
2023/01/02 10:11:40;;;;;;;6.72;2.65;;;9.40;99.90;;;;;;4923206;29;20124;-79
2023/01/02 10:14:16;;;;;;;5.28;2.78;;;9.40;99.90;;;;;;4904950;29;20099;-79
2023/01/02 10:16:46;;;;;;;5.20;2.92;;;9.40;99.90;;;;;;4920299;29;20123;-79
2023/01/02 10:19:35;;;;;;;5.68;2.78;;;9.40;99.90;;;;;;4914674;29;20505;-79
2023/01/02 10:22:03;;;;;;;4.55;2.17;;;9.40;99.90;;;;;;4919740;29;20048;-79
2023/01/02 10:24:37;;;;;;;5.53;2.40;;;9.40;99.90;;;;;;4932981;29;20063;-76
2023/01/02 10:27:07;;;;;;;5.13;2.50;;;9.40;99.90;;;;;;4924177;29;20082;-79
2023/01/02 10:29:42;;;;;;;4.60;2.05;;;9.40;99.90;;;;;;4907236;29;20056;-79
2023/01/02 10:32:19;;;;;;;5.05;2.30;;;9.40;99.90;;;;;;4920655;29;20094;-78
2023/01/02 10:35:06;;;;;;;4.95;2.38;;;9.40;99.90;;;;;;4904320;29;20052;-79
2023/01/02 10:37:33;;;;;;;6.20;2.67;;;9.40;99.90;;;;;;4920272;29;20087;-79
2023/01/02 10:39:59;;;;;;;5.63;2.42;;;9.40;99.90;;;;;;4907734;29;20112;-79
2023/01/02 10:42:24;;;;;;;5.82;2.90;;;9.40;99.90;;;;;;4918234;29;20098;-79
2023/01/02 10:44:51;;;;;;;5.82;2.67;;;9.40;99.90;;;;;;4919342;29;20488;-79
2023/01/02 10:47:21;;;;;;;6.25;2.97;;;9.30;99.90;;;;;;4920884;29;20496;-79
2023/01/02 10:49:51;;;;;;;5.80;2.90;;;9.40;99.90;;;;;;4922736;29;20086;-79
2023/01/02 10:52:22;;;;;;;5.85;2.80;;;9.40;99.90;;;;;;4919592;29;20068;-79
2023/01/02 10:54:53;;;;;;;5.93;2.85;;;9.40;99.90;;;;;;4920025;29;20059;-78
2023/01/02 10:57:37;;;;;;;6.65;2.72;;;9.40;99.90;;;;;;4916377;29;20049;-79
2023/01/02 11:00:04;;;;;;;7.20;2.72;;;9.40;99.90;;;;;;4929293;29;20048;-77
2023/01/02 11:02:39;;;;;;;6.03;2.88;;;9.30;99.90;;;;;;4914698;29;20054;-79
2023/01/02 11:05:16;;;;;;;6.35;2.90;;;9.30;99.90;;;;;;4924918;29;20079;-78
2023/01/02 11:07:47;;;;;;;6.20;2.60;;;9.30;99.90;;;;;;4920000;29;20070;-78
2023/01/02 11:10:33;;;;;;;6.70;2.85;;;9.40;99.90;;;;;;4920087;29;20060;-79
2023/01/02 11:13:11;;;;;;;6.47;2.75;;;9.40;99.90;;;;;;4921014;29;20579;-77
2023/01/02 11:15:45;;;;;;;7.15;2.90;;;9.40;99.90;;;;;;4919870;29;20059;-79
2023/01/02 11:18:19;;;;;;;6.85;2.90;;;9.50;99.90;;;;;;4936066;29;20048;-78
2023/01/02 11:20:55;;;;;;;6.60;2.97;;;9.50;99.90;;;;;;4924370;29;21355;-78
2023/01/02 11:23:24;;;;;;;6.15;2.78;;;9.50;99.90;;;;;;4935247;29;20043;-78
2023/01/02 11:25:51;;;;;;;7.20;3.10;;;9.60;99.90;;;;;;4919042;29;20481;-77
2023/01/02 11:28:27;;;;;;;6.13;3.25;;;9.60;99.90;;;;;;4931600;29;20047;-77
2023/01/02 11:31:13;;;;;;;8.15;3.20;;;9.60;99.90;;;;;;4922525;29;20456;-76
2023/01/02 11:33:40;;;;;;;6.72;3.22;;;9.60;99.90;;;;;;4916009;29;20050;-77
2023/01/02 11:36:14;;;;;;;6.53;2.95;;;9.60;99.90;;;;;;4921236;29;20488;-77
2023/01/02 11:38:42;;;;;;;7.10;3.40;;;9.60;99.90;;;;;;4937216;29;20099;-78
2023/01/02 11:44:32;;;;;;;6.75;2.85;;;9.60;99.90;;;;;;4916359;29;20059;-78
2023/01/02 11:47:00;;;;;;;7.97;3.20;;;9.60;99.90;;;;;;4922220;29;20054;-77
2023/01/02 11:49:35;;;;;;;7.32;3.00;;;9.60;99.90;;;;;;4922472;29;20099;-78
2023/01/02 11:52:03;;;;;;;6.70;2.50;;;9.60;99.90;;;;;;4924459;29;20195;-77
2023/01/02 11:54:48;;;;;;;7.10;2.60;;;9.60;99.90;;;;;;4916138;29;20055;-77
2023/01/02 11:57:30;;;;;;;5.28;2.15;;;9.60;99.90;;;;;;4923109;29;20501;-78
2023/01/02 12:00:00;;;;;;;6.32;2.30;;;9.60;99.90;;;;;;4939892;29;20050;-78
2023/01/02 12:02:40;;;;;;;6.40;2.00;;;9.60;99.90;;;;;;4923876;29;20796;-76
2023/01/02 12:05:13;;;;;;;6.38;2.20;;;9.60;99.90;;;;;;4928553;29;20105;-76
2023/01/02 12:07:49;;;;;;;7.20;2.17;;;9.60;99.90;;;;;;4922425;29;20155;-76
2023/01/02 12:10:39;;;;;;;6.72;2.10;;;9.60;99.90;;;;;;4926576;29;20040;-75
2023/01/02 12:13:17;;;;;;;5.55;1.88;;;9.50;99.90;;;;;;4926283;29;20043;-76
2023/01/02 12:15:50;;;;;;;7.05;1.80;;;9.60;99.90;;;;;;4942161;29;20044;-76
2023/01/02 12:18:21;;;;;;;6.43;1.90;;;9.60;99.90;;;;;;4942226;29;20040;-77
2023/01/02 12:20:55;;;;;;;9.02;2.25;;;9.60;99.90;;;;;;4926920;29;20054;-77
2023/01/02 12:23:41;;;;;;;7.75;2.65;;;9.70;99.90;;;;;;4940015;29;20054;-76
2023/01/02 12:26:18;;;;;;;8.15;2.70;;;9.60;99.90;;;;;;4921638;29;20068;-76
2023/01/02 12:29:01;;;;;;;7.55;2.80;;;9.60;99.90;;;;;;4926259;29;20051;-76
2023/01/02 12:31:52;;;;;;;8.45;3.20;;;9.60;99.90;;;;;;4926197;29;20047;-76
2023/01/02 12:34:20;;;;;;;9.35;3.38;;;9.50;99.90;;;;;;4916137;29;20066;-76
2023/01/02 12:37:11;;;;;;;7.88;3.58;;;9.60;99.90;;;;;;4919273;29;20395;-77
2023/01/02 12:39:55;;;;;;;8.55;4.05;;;9.50;99.90;;;;;;4922093;29;20062;-77
2023/01/02 12:42:43;;;;;;;9.55;4.60;;;9.50;99.90;;;;;;4931931;29;20044;-76
2023/01/02 12:45:37;;;;;;;11.57;5.00;;;9.50;99.90;;;;;;4914669;29;20051;-76
2023/01/02 12:48:48;;;;;;;9.80;4.65;;;9.50;99.90;;;;;;4924812;29;20128;-76
2023/01/02 12:51:40;;;;;;;10.98;4.07;;;9.50;99.90;;;;;;4912372;29;20115;-76
2023/01/02 12:54:43;;;;;;;11.43;4.18;;;9.50;99.90;;;;;;4899433;29;20101;-76
2023/01/02 12:57:19;;;;;;;9.50;4.20;;;9.50;99.90;;;;;;4921962;29;20106;-76
2023/01/02 13:00:10;;;;;;;9.77;3.47;;;9.50;99.90;;;;;;4920963;29;20118;-76
2023/01/02 13:02:57;;;;;;;11.20;3.55;;;9.60;99.90;;;;;;4916447;29;20140;-76